LFLS/GNB METAR and TAF weather

Enter ICAO airport designator
Station Type Date Time Source
LFLS METAR 2024/04/18 06:30 UTC NOAA

LFLS 180630Z AUTO 34010KT 310V020 9999 BKN014 BKN022 OVC037 04/02 Q1015 TEMPO 3000 RA BKN008 SCT030TCU


Station Type Date Time Source
LFLS Decoded METAR 2024/04/18 06:30 UTC NOAA

Grenoble / St. Geoirs, France (LFLS) 45-22N 005-20E 386M
Apr 18, 2024 - 02:30 AM EDT / 2024.04.18 0630 UTC
Wind: from the NNW (340 degrees) at 12 MPH (10 KT) (direction variable):0
Visibility: greater than 7 mile(s):0
Sky conditions: overcast
Weather: Towering cumulus clouds observed
Temperature: 39 F (4 C)
Dew Point: 35 F (2 C)
Relative Humidity: 86%
Pressure (altimeter): 29.97 in. Hg (1015 hPa)
ob: LFLS 180630Z AUTO 34010KT 310V020 9999 BKN014 BKN022 OVC037 04/02 Q1015 TEMPO 3000 RA BKN008 SCT030TCU
cycle: 6

Station Type Date Time Source
LFLS TAF 2024/04/18 19:44 UTC NOAA